This is the latest recevied weather packets stored in our database for station/object N7IPB-1. If no packets are shown the sender has not sent any weather packets the latest 10 day(s).
| Time | Temp. | Humidity | Pressure | Rain* | Wind** | Luminosity | Snow |
|---|---|---|---|---|---|---|---|
| 1778242157 | 10° C | 84% | 1016.7 hPa | 0 mm | - | - | - |
| 1778240959 | 10° C | 84% | 1016.6 hPa | 0 mm | - | - | - |
| 1778240377 | 10° C | 84% | 1016.5 hPa | 0 mm | - | - | - |
| 1778237957 | 10° C | 86% | 1016.2 hPa | 0 mm | - | - | - |
| 1778236157 | 9.44° C | 85% | 1015.8 hPa | 0 mm | - | - | - |
| 1778234957 | 9.44° C | 85% | 1015.8 hPa | 0 mm | - | - | - |
| 1778234397 | 9.44° C | 85% | 1015.8 hPa | 0 mm | - | - | - |
| 1778233778 | 9.44° C | 86% | 1015.8 hPa | 0 mm | - | - | - |
| 1778230797 | 10° C | 86% | 1015.7 hPa | 0 mm | - | - | - |
| 1778228957 | 10° C | 86% | 1015.5 hPa | 0 mm | - | - | - |
| 1778227756 | 10° C | 85% | 1015.4 hPa | 0 mm | - | - | - |
| 1778221157 | 11.67° C | 81% | 1015.5 hPa | 0 mm | - | - | - |
| 1778211557 | 14.44° C | 68% | 1015.6 hPa | 0 mm | - | - | - |
| 1778210978 | 15° C | 67% | 1015.6 hPa | 0 mm | - | - | - |
| 1778205017 | 17.22° C | 59% | - | 0 mm | - | - | - |
| 1778200156 | 17.22° C | 59% | - | 0 mm | - | - | - |
| 1778192356 | 17.22° C | 60% | 1017.6 hPa | 0 mm | - | - | - |
| 1778188156 | 17.22° C | 62% | 1018.3 hPa | 0 mm | - | - | - |
| 1778187556 | 16.67° C | 62% | 1018.4 hPa | 0 mm | - | - | - |
| 1778186356 | 16.67° C | 63% | 1018.6 hPa | 0 mm | - | - | - |
| 1778185156 | 15.56° C | 66% | 1018.8 hPa | 0 mm | - | - | - |
| 1778174955 | 13.33° C | 73% | 1019.6 hPa | 0 mm | - | - | - |
| 1778171958 | 12.78° C | 78% | 1019.7 hPa | 0 mm | - | - | - |
| 1778170155 | 12.22° C | 80% | 1019.7 hPa | 0 mm | - | - | - |
| 1778167178 | 11.67° C | 80% | 1019.8 hPa | 0 mm | - | - | - |
* Rain latest hour (hover to see other rain measurements)
** Current wind speed in m/s (hover to see current wind gust speed)